Time;durP1;ratioP1;P1;durP2;ratioP2;P2;SDS_P1;SDS_P2;PMS_P1;PMS_P2;Temp;Humidity;BMP_temperature;BMP_pressure;BME280_temperature;BME280_humidity;BME280_pressure;Samples;Min_cycle;Max_cycle;Signal;HPM_P1;HPM_P2
2021/01/27 00:02:48;;;;;;;15.00;7.75;;;;;;;4.64;58.61;97697.69;10460942;28;20497;-50
2021/01/27 00:07:50;;;;;;;12.10;6.70;;;;;;;4.73;58.55;97686.41;10460212;28;20044;-50
2021/01/27 00:12:52;;;;;;;9.85;4.53;;;;;;;4.73;58.17;97689.00;10460840;28;20302;-49
2021/01/27 00:17:54;;;;;;;12.48;6.13;;;;;;;4.68;58.42;97667.78;10460086;28;20048;-50
2021/01/27 00:22:57;;;;;;;11.63;6.43;;;;;;;4.68;58.46;97646.97;10459821;28;20390;-59
2021/01/27 00:28:00;;;;;;;11.88;6.20;;;;;;;4.68;58.57;97653.03;10459543;28;20064;-51
2021/01/27 00:33:03;;;;;;;11.57;6.40;;;;;;;4.74;57.98;97649.00;10458970;28;20048;-50
2021/01/27 00:38:10;;;;;;;10.75;5.55;;;;;;;4.71;58.22;97644.94;10459891;28;20431;-51
2021/01/27 00:43:12;;;;;;;9.25;5.10;;;;;;;4.71;57.90;97644.94;10458926;28;20045;-52
2021/01/27 00:48:15;;;;;;;6.22;3.05;;;;;;;4.71;57.50;97636.28;10487090;28;20068;-49
2021/01/27 00:53:17;;;;;;;5.97;3.00;;;;;;;4.71;57.55;97624.09;10500198;28;20072;-49
2021/01/27 00:58:23;;;;;;;8.98;3.63;;;;;;;4.65;57.63;97629.88;10499870;28;20063;-50
2021/01/27 01:03:28;;;;;;;8.73;4.93;;;;;;;4.65;57.79;97626.44;10499148;28;20083;-49
2021/01/27 01:08:31;;;;;;;7.70;3.20;;;;;;;4.64;57.53;97619.59;10502494;28;20056;-56
2021/01/27 01:13:32;;;;;;;10.25;4.47;;;;;;;4.56;57.78;97622.94;10502659;28;20041;-51
2021/01/27 01:18:35;;;;;;;8.93;3.95;;;;;;;4.49;58.34;97621.84;10500108;28;20056;-50
2021/01/27 01:23:37;;;;;;;8.30;4.03;;;;;;;4.35;58.26;97610.97;10499527;28;20052;-50
2021/01/27 01:28:39;;;;;;;8.63;4.00;;;;;;;4.30;58.37;97601.94;10499145;28;20053;-51
2021/01/27 01:33:41;;;;;;;5.35;2.85;;;;;;;4.26;58.25;97600.59;10499852;28;20044;-49
2021/01/27 01:38:44;;;;;;;5.53;2.25;;;;;;;4.15;57.69;97589.38;10499099;28;20060;-50
2021/01/27 01:43:46;;;;;;;7.60;3.07;;;;;;;4.18;57.33;97593.50;10499022;28;20079;-49
2021/01/27 01:48:51;;;;;;;5.25;2.17;;;;;;;4.19;57.26;97591.69;10498561;28;20109;-50
2021/01/27 01:53:58;;;;;;;5.18;1.70;;;;;;;4.15;57.07;97573.78;10502366;28;20090;-49
2021/01/27 01:59:02;;;;;;;5.10;2.05;;;;;;;4.14;56.07;97592.97;10506228;28;20090;-50
2021/01/27 02:04:05;;;;;;;5.10;2.33;;;;;;;4.13;56.37;97580.94;10506793;28;20051;-49
2021/01/27 02:09:07;;;;;;;5.13;1.73;;;;;;;4.21;56.28;97574.19;10506897;28;20056;-49
2021/01/27 02:14:21;;;;;;;3.70;1.48;;;;;;;4.23;55.50;97578.28;10506491;28;20435;-49
2021/01/27 02:19:49;;;;;;;4.88;2.00;;;;;;;4.21;55.26;97567.19;10507211;28;20048;-51
2021/01/27 02:25:21;;;;;;;2.67;1.38;;;;;;;4.27;55.28;97568.41;10505738;28;20063;-51
2021/01/27 02:30:49;;;;;;;3.47;1.27;;;;;;;4.28;54.38;97562.25;10506228;28;20058;-50
2021/01/27 02:36:01;;;;;;;4.90;2.10;;;;;;;4.30;54.42;97568.94;10506180;28;20071;-50
2021/01/27 02:41:09;;;;;;;4.25;1.75;;;;;;;4.37;53.97;97566.56;10504491;28;20057;-51
2021/01/27 02:46:16;;;;;;;4.72;1.92;;;;;;;4.25;54.58;97552.97;10504967;28;20051;-50
2021/01/27 02:51:23;;;;;;;3.75;1.23;;;;;;;4.34;53.82;97539.09;10505600;28;20053;-50
2021/01/27 02:56:31;;;;;;;5.72;2.28;;;;;;;4.33;54.02;97547.03;10505043;28;20048;-51
2021/01/27 03:01:43;;;;;;;5.80;2.28;;;;;;;4.34;54.09;97554.72;10487372;28;20061;-50
2021/01/27 03:06:48;;;;;;;3.75;1.55;;;;;;;4.43;53.58;97558.19;10463060;28;20053;-50
2021/01/27 03:11:50;;;;;;;5.20;2.42;;;;;;;4.37;53.64;97577.84;10465572;28;20045;-50
2021/01/27 03:17:00;;;;;;;6.88;2.60;;;;;;;4.34;53.64;97578.13;10462994;28;20450;-49
2021/01/27 03:22:06;;;;;;;6.63;2.80;;;;;;;4.50;54.22;97576.69;10462766;28;20052;-53
2021/01/27 03:27:14;;;;;;;6.03;2.45;;;;;;;4.55;53.03;97570.06;10462316;28;20378;-50
2021/01/27 03:32:38;;;;;;;5.10;2.47;;;;;;;4.55;53.26;97582.25;10461148;28;20045;-52
2021/01/27 03:37:47;;;;;;;4.53;1.70;;;;;;;4.56;52.47;97573.50;10462161;28;20056;-50
2021/01/27 03:42:56;;;;;;;6.88;2.75;;;;;;;4.59;52.19;97575.81;10462109;28;20049;-50
2021/01/27 03:48:07;;;;;;;4.60;2.20;;;;;;;4.67;52.17;97568.06;10461507;28;20060;-53
2021/01/27 03:53:15;;;;;;;6.28;2.97;;;;;;;4.65;51.38;97569.19;10461333;28;20132;-50
2021/01/27 03:58:21;;;;;;;6.82;2.55;;;;;;;4.72;51.24;97565.06;10460820;28;20067;-49
2021/01/27 04:03:23;;;;;;;5.53;2.10;;;;;;;4.73;50.76;97562.28;10458666;28;20137;-50
2021/01/27 04:08:26;;;;;;;3.55;1.48;;;;;;;4.61;50.00;97558.25;10460810;28;20057;-62
2021/01/27 04:13:29;;;;;;;4.20;1.90;;;;;;;4.48;48.65;97556.00;10460322;28;20380;-50
2021/01/27 04:18:31;;;;;;;4.57;1.90;;;;;;;4.45;49.06;97553.69;10459741;28;20397;-51
2021/01/27 04:23:33;;;;;;;5.10;2.33;;;;;;;4.35;47.81;97550.31;10460629;28;20056;-53
2021/01/27 04:28:35;;;;;;;3.00;1.30;;;;;;;4.40;48.33;97548.09;10459662;28;20405;-49
2021/01/27 04:33:38;;;;;;;4.22;1.75;;;;;;;4.29;46.93;97553.50;10459262;28;20460;-51
2021/01/27 04:38:41;;;;;;;4.03;1.73;;;;;;;4.25;47.15;97539.13;10457399;28;20107;-57
2021/01/27 04:43:44;;;;;;;2.27;0.90;;;;;;;4.29;47.35;97535.28;10459837;28;20045;-52
2021/01/27 04:48:55;;;;;;;3.97;1.63;;;;;;;4.26;46.87;97549.41;10459274;28;20048;-50
2021/01/27 04:54:12;;;;;;;5.60;2.08;;;;;;;4.21;47.16;97568.97;10459286;28;20055;-50
2021/01/27 04:59:19;;;;;;;6.72;2.53;;;;;;;4.19;46.70;97557.91;10459135;28;20076;-51
2021/01/27 05:04:48;;;;;;;4.68;1.75;;;;;;;4.28;47.36;97565.69;10460006;28;20059;-50
2021/01/27 05:09:57;;;;;;;5.82;2.35;;;;;;;4.29;47.19;97554.31;10462684;28;20431;-50
2021/01/27 05:14:59;;;;;;;8.13;2.67;;;;;;;4.24;47.00;97579.09;10461531;28;20481;-49
2021/01/27 05:20:02;;;;;;;6.72;2.22;;;;;;;4.26;46.95;97566.78;10460441;28;20059;-51
2021/01/27 05:25:07;;;;;;;4.80;2.10;;;;;;;4.31;47.18;97567.16;10459647;28;20053;-50
2021/01/27 05:30:21;;;;;;;6.75;2.80;;;;;;;4.18;47.26;97577.06;10463317;28;20049;-51
2021/01/27 05:35:25;;;;;;;;;;;;;;;4.14;46.88;97574.75;10467474;28;20041;-49
2021/01/27 05:40:33;;;;;;;6.47;2.10;;;;;;;4.14;47.04;97587.75;10465455;28;19925;-51
2021/01/27 05:45:41;;;;;;;5.25;2.63;;;;;;;4.15;47.63;97584.19;10466105;28;20490;-49
2021/01/27 05:50:43;;;;;;;7.25;2.60;;;;;;;4.19;46.92;97581.31;10466259;28;20079;-51
2021/01/27 05:56:01;;;;;;;6.65;2.22;;;;;;;4.18;47.17;97577.06;10465682;28;20610;-50
2021/01/27 06:01:21;;;;;;;5.85;2.35;;;;;;;4.13;47.28;97573.13;10465744;28;20065;-50
2021/01/27 06:06:23;;;;;;;6.60;2.58;;;;;;;4.20;47.48;97575.97;10465547;28;20045;-49
2021/01/27 06:11:27;;;;;;;5.80;2.50;;;;;;;4.20;47.28;97582.97;10465089;28;20056;-51
2021/01/27 06:16:34;;;;;;;4.65;1.90;;;;;;;4.24;47.53;97581.69;10464734;28;20190;-51
2021/01/27 06:22:08;;;;;;;6.43;2.50;;;;;;;4.24;47.27;97590.31;10465457;28;20083;-50
2021/01/27 06:27:54;;;;;;;5.85;2.10;;;;;;;4.26;47.42;97591.00;10464484;28;20048;-51
2021/01/27 06:33:13;;;;;;;3.50;1.50;;;;;;;4.29;47.13;97605.50;10413363;28;20056;-49
2021/01/27 06:38:35;;;;;;;4.25;1.95;;;;;;;4.25;47.38;97601.53;10463667;28;20055;-51
2021/01/27 06:44:01;;;;;;;5.85;2.55;;;;;;;4.29;47.06;97611.53;10463501;28;20045;-51
2021/01/27 06:49:34;;;;;;;5.15;2.05;;;;;;;4.27;47.41;97617.81;10463951;28;20055;-49
2021/01/27 06:54:53;;;;;;;5.80;2.42;;;;;;;4.36;47.11;97632.59;10463122;28;20584;-49
2021/01/27 07:00:10;;;;;;;5.03;1.33;;;;;;;4.32;47.13;97639.03;10463552;28;20520;-49
2021/01/27 07:05:36;;;;;;;4.40;2.17;;;;;;;4.27;47.31;97634.25;10467168;28;20136;-55
2021/01/27 07:11:05;;;;;;;5.35;2.30;;;;;;;4.19;47.03;97617.72;10431729;28;20444;-50
2021/01/27 07:16:10;;;;;;;5.55;2.63;;;;;;;4.28;47.93;97629.88;10461804;28;20615;-51
2021/01/27 07:21:20;;;;;;;4.53;2.08;;;;;;;4.35;47.14;97615.34;10462727;28;20049;-50
2021/01/27 07:26:25;;;;;;;5.07;2.15;;;;;;;4.32;47.47;97626.84;10462406;28;20111;-50
2021/01/27 07:31:31;;;;;;;6.53;2.40;;;;;;;4.45;46.99;97636.13;10462605;28;20037;-51
2021/01/27 07:36:44;;;;;;;7.97;3.55;;;;;;;4.45;47.17;97639.53;10462162;28;20075;-51
2021/01/27 07:41:55;;;;;;;5.73;2.33;;;;;;;4.66;47.28;97643.72;10461442;28;20092;-49
2021/01/27 07:47:05;;;;;;;5.82;2.17;;;;;;;4.64;46.87;97650.84;10461740;28;20136;-50
2021/01/27 07:52:16;;;;;;;5.13;2.42;;;;;;;4.77;46.41;97656.50;10460913;28;20055;-50
2021/01/27 07:57:33;;;;;;;5.70;2.22;;;;;;;5.00;46.72;97660.38;10461176;28;20045;-50
2021/01/27 08:02:43;;;;;;;4.10;1.92;;;;;;;5.00;46.22;97652.56;10460820;28;20041;-50
2021/01/27 08:07:59;;;;;;;4.20;1.90;;;;;;;4.99;46.00;97663.16;10461038;28;20071;-50
2021/01/27 08:13:04;;;;;;;3.20;1.27;;;;;;;5.39;46.21;97667.97;10460441;28;20136;-49
2021/01/27 08:18:14;;;;;;;6.53;2.80;;;;;;;5.48;45.22;97695.75;10462156;28;20052;-50
2021/01/27 08:23:48;;;;;;;6.05;2.50;;;;;;;5.59;45.61;97701.69;10463077;28;20040;-50
2021/01/27 08:28:50;;;;;;;9.10;2.45;;;;;;;5.69;45.93;97720.69;10462166;28;20063;-50
2021/01/27 08:33:55;;;;;;;13.45;2.35;;;;;;;5.59;45.54;97699.91;10460885;28;20425;-52
2021/01/27 08:39:07;;;;;;;4.97;1.77;;;;;;;5.63;44.74;97705.63;10459678;28;20461;-50
2021/01/27 08:44:23;;;;;;;6.28;2.10;;;;;;;5.63;45.45;97710.84;10459495;28;20045;-49
2021/01/27 08:49:51;;;;;;;4.47;1.80;;;;;;;5.53;44.60;97711.75;10459136;28;20052;-50
2021/01/27 08:54:55;;;;;;;5.03;1.98;;;;;;;5.46;45.39;97722.91;10459039;28;20045;-51
2021/01/27 09:00:08;;;;;;;6.75;2.22;;;;;;;5.50;45.64;97716.44;10465153;28;20146;-49
2021/01/27 09:05:20;;;;;;;6.05;1.63;;;;;;;5.54;45.47;97723.81;10458172;28;20167;-50
2021/01/27 09:10:30;;;;;;;5.53;1.90;;;;;;;5.47;45.53;97717.53;10458654;28;20385;-50
2021/01/27 09:15:34;;;;;;;2.88;1.15;;;;;;;5.30;45.18;97720.97;10458582;28;20056;-51
2021/01/27 09:20:36;;;;;;;6.53;2.05;;;;;;;5.30;45.58;97731.38;10458847;28;20069;-49
2021/01/27 09:25:45;;;;;;;4.45;1.60;;;;;;;5.36;44.96;97746.44;10458351;28;20045;-50
2021/01/27 09:30:47;;;;;;;3.78;1.35;;;;;;;5.35;45.62;97747.38;10457821;28;20040;-50
2021/01/27 09:35:49;;;;;;;5.25;1.73;;;;;;;5.48;45.38;97755.69;10458161;28;20385;-50
2021/01/27 09:40:59;;;;;;;4.20;1.38;;;;;;;5.57;44.88;97753.97;10457786;28;20055;-51
2021/01/27 09:46:17;;;;;;;5.38;1.60;;;;;;;5.56;44.60;97762.75;10457396;28;20049;-50
2021/01/27 09:51:19;;;;;;;4.05;1.42;;;;;;;5.51;44.83;97773.63;10458460;28;20440;-51
2021/01/27 09:56:22;;;;;;;5.80;1.73;;;;;;;5.44;44.75;97785.59;10457753;28;20500;-50
2021/01/27 10:01:28;;;;;;;6.40;1.85;;;;;;;5.49;44.71;97793.00;10457364;28;20083;-50
2021/01/27 10:06:34;;;;;;;4.05;1.45;;;;;;;5.58;44.74;97797.31;10456976;28;20362;-49
2021/01/27 10:11:37;;;;;;;2.97;1.27;;;;;;;5.67;44.82;97790.41;10457122;28;20045;-50
2021/01/27 10:16:49;;;;;;;4.43;1.63;;;;;;;5.64;44.38;97798.53;10463024;28;20099;-50
2021/01/27 10:21:53;;;;;;;4.78;1.88;;;;;;;5.68;44.90;97808.50;10465284;28;20053;-49
2021/01/27 10:27:03;;;;;;;5.35;1.80;;;;;;;5.59;44.20;97798.16;10464485;28;20051;-50
2021/01/27 10:32:21;;;;;;;5.70;2.00;;;;;;;5.46;44.82;97814.94;10465278;28;20072;-51
2021/01/27 10:37:29;;;;;;;2.60;0.95;;;;;;;5.54;44.86;97814.19;10463454;28;20544;-50
2021/01/27 10:42:35;;;;;;;7.03;1.45;;;;;;;5.38;44.77;97822.66;10464282;28;20129;-51
2021/01/27 10:47:38;;;;;;;3.85;1.27;;;;;;;5.34;44.65;97821.31;10464287;28;20055;-49
2021/01/27 10:52:40;;;;;;;6.18;1.50;;;;;;;5.37;45.17;97841.88;10464414;28;20053;-51
2021/01/27 10:57:42;;;;;;;3.63;1.35;;;;;;;5.36;44.83;97845.44;10466715;28;20178;-49
2021/01/27 11:02:44;;;;;;;7.82;1.75;;;;;;;5.27;44.58;97847.13;10462902;28;20056;-50
2021/01/27 11:07:46;;;;;;;3.63;1.33;;;;;;;5.31;44.39;97864.09;10462999;28;20385;-50
2021/01/27 11:12:51;;;;;;;4.00;1.40;;;;;;;5.30;44.60;97866.84;10462484;28;20063;-50
2021/01/27 11:17:53;;;;;;;4.97;1.40;;;;;;;5.29;44.67;97866.00;10463184;28;20049;-49
2021/01/27 11:22:55;;;;;;;4.55;1.70;;;;;;;5.33;45.17;97863.97;10462107;28;20432;-51
2021/01/27 11:27:58;;;;;;;3.65;1.30;;;;;;;5.35;44.92;97863.81;10464495;28;20053;-50
2021/01/27 11:33:00;;;;;;;3.38;1.50;;;;;;;5.37;45.05;97867.91;10463116;28;20044;-51
2021/01/27 11:38:02;;;;;;;3.95;1.92;;;;;;;5.35;44.72;97879.44;10460893;28;20544;-50
2021/01/27 11:43:05;;;;;;;4.78;1.73;;;;;;;5.45;44.72;97869.78;10461667;28;20056;-50
2021/01/27 11:48:07;;;;;;;4.68;1.90;;;;;;;5.48;44.85;97891.22;10460189;28;20044;-50
2021/01/27 11:53:08;;;;;;;4.97;1.58;;;;;;;5.42;45.18;97896.13;10461017;28;20049;-51
2021/01/27 11:58:11;;;;;;;6.03;1.27;;;;;;;5.41;44.80;97897.94;10460715;28;20385;-52
2021/01/27 12:03:13;;;;;;;5.18;1.80;;;;;;;5.25;44.91;97908.13;10459893;28;20045;-50
2021/01/27 12:08:15;;;;;;;3.50;1.38;;;;;;;5.30;45.40;97913.75;10460653;28;20115;-51
2021/01/27 12:13:18;;;;;;;3.97;1.60;;;;;;;5.33;44.30;97908.25;10460442;28;20051;-50
2021/01/27 12:18:20;;;;;;;5.23;1.10;;;;;;;5.23;45.20;97912.66;10460727;28;20086;-50
2021/01/27 12:23:22;;;;;;;4.55;1.70;;;;;;;5.24;44.86;97912.53;10461777;28;20362;-51
2021/01/27 12:28:24;;;;;;;3.35;1.25;;;;;;;5.22;44.80;97924.03;10459977;28;20401;-51
2021/01/27 12:33:26;;;;;;;4.13;1.30;;;;;;;5.19;45.26;97924.31;10459531;28;20055;-50
2021/01/27 12:38:28;;;;;;;3.97;1.50;;;;;;;5.12;44.97;97925.84;10458506;28;20502;-51
2021/01/27 12:43:30;;;;;;;4.63;1.85;;;;;;;5.05;45.34;97929.03;10459447;28;20036;-49
2021/01/27 12:48:32;;;;;;;3.58;1.30;;;;;;;5.04;45.18;97940.38;10459574;28;20055;-52
2021/01/27 12:53:34;;;;;;;3.92;1.63;;;;;;;5.03;45.54;97936.13;10463056;28;20134;-52
2021/01/27 12:58:36;;;;;;;4.32;1.60;;;;;;;5.03;45.54;97943.94;10458799;28;20454;-49
2021/01/27 13:03:38;;;;;;;4.13;1.88;;;;;;;5.04;45.42;97948.19;10459242;28;20048;-50
2021/01/27 13:08:40;;;;;;;4.28;1.65;;;;;;;5.06;45.70;97956.69;10460208;28;20375;-53
2021/01/27 13:13:43;;;;;;;4.55;1.50;;;;;;;5.00;45.90;97965.06;10459021;28;20084;-50
2021/01/27 13:18:45;;;;;;;4.90;1.80;;;;;;;4.97;45.88;97973.16;10458716;28;20049;-59
2021/01/27 13:23:47;;;;;;;7.05;2.28;;;;;;;5.02;45.84;97970.97;10461398;28;20075;-49
2021/01/27 13:28:50;;;;;;;3.73;1.60;;;;;;;5.08;45.61;97973.00;10459883;28;20053;-50
2021/01/27 13:33:52;;;;;;;5.35;2.30;;;;;;;5.10;46.20;97970.25;10458172;28;20222;-50
2021/01/27 13:38:54;;;;;;;5.00;2.08;;;;;;;5.15;46.07;97973.28;10457940;28;20049;-50
2021/01/27 13:43:57;;;;;;;4.07;1.52;;;;;;;5.18;45.89;97982.59;10457629;28;20504;-51
2021/01/27 13:48:58;;;;;;;4.95;1.63;;;;;;;5.10;45.78;97996.31;10460396;28;20056;-51
2021/01/27 13:54:00;;;;;;;4.38;1.48;;;;;;;5.07;46.02;97992.19;10466412;28;20049;-56
2021/01/27 13:59:02;;;;;;;5.18;1.98;;;;;;;5.18;46.14;97999.06;10466016;28;20409;-51
2021/01/27 14:04:05;;;;;;;4.20;1.60;;;;;;;5.30;45.56;97991.91;10465842;28;20374;-49
2021/01/27 14:09:06;;;;;;;5.70;1.90;;;;;;;5.26;45.91;97999.16;10465610;28;20068;-50
2021/01/27 14:14:09;;;;;;;4.75;1.95;;;;;;;5.22;46.17;98007.41;10465926;28;20037;-49
2021/01/27 14:19:10;;;;;;;4.05;1.65;;;;;;;5.19;46.28;98010.28;10465676;28;20071;-51
2021/01/27 14:24:12;;;;;;;7.05;3.25;;;;;;;5.16;46.41;98011.38;10465182;28;20045;-51
2021/01/27 14:29:15;;;;;;;6.47;2.50;;;;;;;5.18;46.01;98011.25;10464937;28;20501;-51
2021/01/27 14:34:16;;;;;;;4.95;1.95;;;;;;;5.19;46.42;98012.88;10464402;28;20055;-50
2021/01/27 14:39:18;;;;;;;4.03;1.67;;;;;;;5.20;46.38;98017.97;10467121;28;20063;-52
2021/01/27 14:44:21;;;;;;;5.05;1.63;;;;;;;5.25;46.43;98012.34;10465915;28;20466;-50
2021/01/27 14:49:22;;;;;;;3.90;1.60;;;;;;;5.22;46.15;98002.19;10464194;28;20125;-51
2021/01/27 14:54:24;;;;;;;6.38;2.45;;;;;;;5.24;46.41;98002.88;10463643;28;20045;-50
2021/01/27 14:59:26;;;;;;;4.38;1.90;;;;;;;5.38;46.02;97999.03;10462598;28;20512;-54
2021/01/27 15:04:28;;;;;;;4.90;1.67;;;;;;;5.37;46.22;97993.00;10465975;28;20049;-51
2021/01/27 15:09:30;;;;;;;4.32;1.80;;;;;;;5.24;46.38;98000.28;10465479;28;20504;-52
2021/01/27 15:14:32;;;;;;;5.95;2.13;;;;;;;5.30;46.48;98002.34;10465207;28;20059;-50
2021/01/27 15:19:34;;;;;;;4.35;2.00;;;;;;;5.40;46.21;97992.72;10462801;28;20052;-50
2021/01/27 15:24:36;;;;;;;5.63;2.42;;;;;;;5.38;46.39;97996.41;10481122;28;20040;-50
2021/01/27 15:29:38;;;;;;;5.53;2.10;;;;;;;5.38;46.27;98006.84;10497778;28;20489;-51
2021/01/27 15:34:43;;;;;;;4.90;2.22;;;;;;;5.41;45.92;98009.16;10495502;28;20105;-50
2021/01/27 15:39:44;;;;;;;4.28;1.80;;;;;;;5.42;45.95;98011.66;10500306;28;20063;-49
2021/01/27 15:44:47;;;;;;;4.97;2.35;;;;;;;5.36;45.97;98017.41;10499806;28;20052;-50
2021/01/27 15:49:49;;;;;;;6.97;1.90;;;;;;;5.35;46.28;98020.16;10502188;28;20195;-53
2021/01/27 15:54:52;;;;;;;7.00;2.47;;;;;;;5.28;46.52;98035.50;10501391;28;20072;-49
2021/01/27 15:59:54;;;;;;;5.67;2.43;;;;;;;5.31;46.38;98036.06;10499078;28;20405;-50
2021/01/27 16:04:56;;;;;;;5.63;2.25;;;;;;;5.30;46.53;98031.00;10500399;28;20642;-49
2021/01/27 16:09:58;;;;;;;6.60;2.25;;;;;;;5.26;46.75;98033.03;10499493;28;20040;-49
2021/01/27 16:15:00;;;;;;;7.93;2.53;;;;;;;5.30;46.62;98029.22;10499970;28;20086;-49
2021/01/27 16:20:03;;;;;;;5.72;2.00;;;;;;;5.35;46.16;98030.56;10496882;28;20072;-50
2021/01/27 16:25:07;;;;;;;6.07;2.15;;;;;;;5.35;46.00;98033.16;10489700;28;20076;-50
2021/01/27 16:30:11;;;;;;;6.50;2.25;;;;;;;5.33;46.65;98038.53;10498935;28;20048;-50
2021/01/27 16:35:13;;;;;;;;;;;;;;;5.31;46.25;98041.25;10500599;28;20485;-49
2021/01/27 16:40:16;;;;;;;4.40;1.85;;;;;;;5.31;46.40;98048.25;10503800;28;20338;-54
2021/01/27 16:45:20;;;;;;;4.00;1.63;;;;;;;5.18;46.34;98045.94;10498240;28;20044;-50
2021/01/27 16:50:22;;;;;;;5.72;2.50;;;;;;;5.09;46.39;98049.38;10498758;28;20105;-51
2021/01/27 16:55:26;;;;;;;5.82;2.60;;;;;;;5.05;46.55;98061.84;10497693;28;20496;-49
2021/01/27 17:00:29;;;;;;;5.80;2.50;;;;;;;5.07;46.64;98062.50;10499096;28;20153;-50
2021/01/27 17:05:32;;;;;;;5.10;2.30;;;;;;;5.06;46.34;98084.31;10464588;28;20041;-57
2021/01/27 17:10:35;;;;;;;7.72;2.13;;;;;;;5.12;46.78;98077.75;10470654;28;20131;-50
2021/01/27 17:15:39;;;;;;;5.03;1.98;;;;;;;5.05;46.23;98081.84;10498809;28;20044;-51
2021/01/27 17:20:40;;;;;;;5.35;2.13;;;;;;;5.02;46.22;98076.91;10499251;28;20048;-50
2021/01/27 17:25:42;;;;;;;6.85;2.45;;;;;;;5.01;46.54;98070.03;10495083;28;20086;-50
2021/01/27 17:30:45;;;;;;;7.18;2.47;;;;;;;5.11;46.67;98080.47;10497402;28;20078;-50
2021/01/27 17:35:46;;;;;;;3.97;1.88;;;;;;;5.10;46.19;98090.06;10494399;28;20418;-50
2021/01/27 17:40:48;;;;;;;6.38;1.95;;;;;;;5.14;46.37;98077.59;10496559;28;20488;-51
2021/01/27 17:45:50;;;;;;;6.07;2.72;;;;;;;5.34;46.07;98091.47;10497386;28;20048;-50
2021/01/27 17:50:52;;;;;;;5.68;2.30;;;;;;;5.37;46.43;98081.59;10498377;28;20048;-50
2021/01/27 17:55:54;;;;;;;5.57;2.00;;;;;;;5.35;46.01;98082.69;10497850;28;20504;-51
2021/01/27 18:00:57;;;;;;;3.65;1.70;;;;;;;5.19;46.00;98096.25;10490917;28;20205;-50
2021/01/27 18:05:59;;;;;;;4.82;2.00;;;;;;;5.25;46.68;98093.09;10460112;28;20202;-51
2021/01/27 18:11:01;;;;;;;5.65;2.35;;;;;;;5.29;46.06;98090.06;10455911;28;20080;-50
2021/01/27 18:16:04;;;;;;;4.97;2.05;;;;;;;5.36;46.28;98092.97;10468573;28;20056;-50
2021/01/27 18:21:06;;;;;;;4.90;2.38;;;;;;;5.36;46.31;98092.97;10496198;28;20052;-49
2021/01/27 18:26:08;;;;;;;4.90;1.88;;;;;;;5.26;46.09;98090.34;10499858;28;20045;-50
2021/01/27 18:31:11;;;;;;;6.47;2.25;;;;;;;5.36;46.54;98090.38;10499527;28;20058;-49
2021/01/27 18:36:13;;;;;;;5.20;2.45;;;;;;;5.43;46.22;98101.06;10498466;28;20561;-51
2021/01/27 18:41:14;;;;;;;7.00;2.45;;;;;;;5.27;46.50;98099.00;10503297;28;20059;-51
2021/01/27 18:46:17;;;;;;;5.00;2.25;;;;;;;5.20;46.25;98095.28;10504341;28;20059;-49
2021/01/27 18:51:19;;;;;;;5.25;2.28;;;;;;;5.02;46.88;98087.34;10504274;28;20072;-56
2021/01/27 18:56:21;;;;;;;5.43;1.95;;;;;;;4.94;46.96;98080.19;10503078;28;20052;-51
2021/01/27 19:01:24;;;;;;;5.35;2.53;;;;;;;4.93;46.49;98090.75;10503776;28;20178;-50
2021/01/27 19:06:26;;;;;;;6.68;2.63;;;;;;;4.93;46.64;98088.97;10503230;28;20060;-51
2021/01/27 19:11:28;;;;;;;6.65;2.47;;;;;;;5.03;46.61;98078.56;10503393;28;20139;-51
2021/01/27 19:16:30;;;;;;;5.95;2.20;;;;;;;5.02;46.86;98077.75;10502731;28;20048;-50
2021/01/27 19:21:32;;;;;;;5.00;2.28;;;;;;;4.92;46.64;98071.69;10502816;28;20143;-53
2021/01/27 19:26:34;;;;;;;7.80;3.15;;;;;;;4.82;47.09;98069.06;10502070;28;20056;-52
2021/01/27 19:31:36;;;;;;;5.07;2.67;;;;;;;4.84;46.55;98074.97;10502566;28;20507;-50
2021/01/27 19:36:38;;;;;;;6.28;2.83;;;;;;;4.90;46.70;98065.78;10501504;28;20044;-50
2021/01/27 19:41:40;;;;;;;8.02;3.40;;;;;;;4.99;46.97;98078.00;10501361;28;20457;-54
2021/01/27 19:46:42;;;;;;;7.30;3.83;;;;;;;5.01;46.85;98073.47;10499455;28;20040;-51
2021/01/27 19:51:45;;;;;;;10.57;4.43;;;;;;;5.01;46.75;98080.47;10500946;28;20056;-50
2021/01/27 19:56:46;;;;;;;10.70;4.72;;;;;;;4.92;46.74;98089.09;10466677;28;20064;-51
2021/01/27 20:01:49;;;;;;;9.60;3.85;;;;;;;4.69;47.45;98089.31;10459184;28;20134;-50
2021/01/27 20:06:51;;;;;;;9.82;4.63;;;;;;;4.50;47.58;98082.28;10460491;28;20048;-50
2021/01/27 20:11:52;;;;;;;10.35;4.63;;;;;;;4.37;48.42;98082.50;10460455;28;20063;-50
2021/01/27 20:16:55;;;;;;;11.23;4.90;;;;;;;4.46;48.31;98086.09;10460352;28;20068;-52
2021/01/27 20:21:57;;;;;;;12.02;5.68;;;;;;;4.68;48.17;98105.91;10463136;28;20049;-50
2021/01/27 20:26:58;;;;;;;13.73;5.20;;;;;;;4.80;47.52;98104.00;10459529;28;20466;-55
2021/01/27 20:32:02;;;;;;;12.75;5.40;;;;;;;4.67;47.58;98098.22;10466131;28;20101;-51
2021/01/27 20:37:04;;;;;;;12.68;5.32;;;;;;;4.62;48.33;98096.03;10461168;28;20056;-51
2021/01/27 20:42:05;;;;;;;11.27;5.45;;;;;;;4.60;47.85;98108.34;10458968;28;20057;-49
2021/01/27 20:47:08;;;;;;;17.55;5.85;;;;;;;4.52;47.87;98103.78;10460042;28;20053;-50
2021/01/27 20:52:10;;;;;;;14.20;6.43;;;;;;;4.47;48.06;98098.16;10459005;28;20048;-51
2021/01/27 20:57:11;;;;;;;12.23;5.40;;;;;;;4.44;48.25;98093.22;10457812;28;20049;-50
2021/01/27 21:02:14;;;;;;;12.75;5.80;;;;;;;4.36;48.36;98086.06;10457997;28;20060;-51
2021/01/27 21:07:16;;;;;;;12.25;5.85;;;;;;;4.22;48.47;98088.19;10458336;28;20041;-49
2021/01/27 21:12:17;;;;;;;14.20;7.13;;;;;;;4.05;48.63;98093.03;10457777;28;20053;-50
2021/01/27 21:17:20;;;;;;;21.00;8.43;;;;;;;4.02;49.24;98088.09;10458680;28;20044;-52
2021/01/27 21:22:22;;;;;;;14.80;6.40;;;;;;;3.96;48.79;98093.81;10457714;28;20103;-49
2021/01/27 21:27:24;;;;;;;10.95;6.13;;;;;;;3.87;48.83;98091.97;10458268;28;20056;-51
2021/01/27 21:32:26;;;;;;;12.68;6.05;;;;;;;3.87;48.96;98094.56;10458052;28;20061;-50
2021/01/27 21:37:28;;;;;;;11.23;5.38;;;;;;;3.90;49.46;98094.31;10457968;28;20052;-52
2021/01/27 21:42:30;;;;;;;9.43;4.90;;;;;;;3.83;49.63;98099.19;10458547;28;20048;-50
2021/01/27 21:47:34;;;;;;;11.85;5.47;;;;;;;3.79;49.55;98105.63;10457624;28;20041;-50
2021/01/27 21:52:36;;;;;;;11.68;5.85;;;;;;;3.73;49.84;98100.94;10457288;28;20057;-52
2021/01/27 21:57:37;;;;;;;11.80;6.03;;;;;;;3.73;49.51;98102.72;10457691;28;20059;-49
2021/01/27 22:02:40;;;;;;;8.43;4.53;;;;;;;3.68;49.91;98109.09;10458197;28;20404;-55
2021/01/27 22:07:42;;;;;;;10.70;5.18;;;;;;;3.54;49.92;98114.63;10458039;28;20055;-53
2021/01/27 22:12:45;;;;;;;9.98;5.20;;;;;;;3.45;50.72;98104.97;10463419;28;20486;-52
2021/01/27 22:17:48;;;;;;;10.63;5.18;;;;;;;3.50;50.20;98114.97;10465238;28;20041;-52
2021/01/27 22:22:50;;;;;;;9.88;5.10;;;;;;;3.58;50.38;98105.59;10464288;28;20048;-51
2021/01/27 22:27:51;;;;;;;11.93;4.50;;;;;;;3.65;50.38;98106.75;10467898;28;20074;-50
2021/01/27 22:32:54;;;;;;;13.05;4.75;;;;;;;3.74;49.81;98099.97;10464790;28;20553;-52
2021/01/27 22:37:56;;;;;;;11.10;5.40;;;;;;;3.84;50.31;98100.03;10463468;28;20053;-49
2021/01/27 22:42:59;;;;;;;13.05;5.00;;;;;;;3.90;50.01;98099.50;10464955;28;20091;-50
2021/01/27 22:48:01;;;;;;;12.13;6.88;;;;;;;3.97;49.63;98103.25;10464730;28;20045;-50
2021/01/27 22:53:04;;;;;;;15.80;7.68;;;;;;;4.06;50.08;98092.06;10463532;28;20113;-50
2021/01/27 22:58:05;;;;;;;14.57;8.85;;;;;;;4.19;49.47;98085.84;10462926;28;20073;-51
2021/01/27 23:03:11;;;;;;;15.32;6.18;;;;;;;4.23;49.35;98087.25;10462724;28;20148;-51
2021/01/27 23:08:14;;;;;;;14.32;6.60;;;;;;;4.22;49.58;98082.97;10463527;28;20049;-51
2021/01/27 23:13:16;;;;;;;13.00;6.43;;;;;;;4.26;49.71;98086.97;10462895;28;20144;-51
2021/01/27 23:18:21;;;;;;;11.88;6.50;;;;;;;4.11;49.86;98084.72;10462521;28;20363;-51
2021/01/27 23:23:27;;;;;;;12.07;5.47;;;;;;;4.09;49.69;98084.00;10461945;28;20136;-51
2021/01/27 23:28:34;;;;;;;15.00;7.18;;;;;;;4.05;49.90;98090.44;10462786;28;20473;-50
2021/01/27 23:33:37;;;;;;;13.85;7.68;;;;;;;4.06;49.55;98091.25;10462170;28;20169;-52
2021/01/27 23:38:38;;;;;;;17.17;6.67;;;;;;;4.13;49.78;98085.41;10462474;28;20052;-50
2021/01/27 23:43:40;;;;;;;16.83;8.00;;;;;;;4.13;49.50;98085.41;10461970;28;20049;-50
2021/01/27 23:48:43;;;;;;;16.48;8.95;;;;;;;4.11;49.45;98083.91;10461198;28;20064;-52
2021/01/27 23:53:44;;;;;;;14.43;6.70;;;;;;;4.12;48.93;98078.53;10462043;28;20049;-50